sensor_id;sensor_type;location;lat;lon;timestamp;pressure;altitude;pressure_sealevel;temperature;humidity
13604;BME280;24578;48.264;11.436;2023-01-27T00:02:45;96182.91;;;-1.58;100.00
13604;BME280;24578;48.264;11.436;2023-01-27T00:05:46;96184.50;;;-1.54;100.00
13604;BME280;24578;48.264;11.436;2023-01-27T00:08:46;96190.50;;;-1.56;100.00
13604;BME280;24578;48.264;11.436;2023-01-27T00:11:47;96183.16;;;-1.67;100.00
13604;BME280;24578;48.264;11.436;2023-01-27T00:15:07;96182.31;;;-1.67;100.00
13604;BME280;24578;48.264;11.436;2023-01-27T00:18:07;96177.19;;;-1.66;100.00
13604;BME280;24578;48.264;11.436;2023-01-27T00:21:08;96179.88;;;-1.72;100.00
13604;BME280;24578;48.264;11.436;2023-01-27T00:24:27;96185.88;;;-1.75;100.00
13604;BME280;24578;48.264;11.436;2023-01-27T00:27:37;96176.53;;;-1.74;100.00
13604;BME280;24578;48.264;11.436;2023-01-27T00:30:37;96167.25;;;-1.74;100.00
13604;BME280;24578;48.264;11.436;2023-01-27T00:33:38;96180.81;;;-1.75;100.00
13604;BME280;24578;48.264;11.436;2023-01-27T00:36:40;96174.06;;;-1.76;100.00
13604;BME280;24578;48.264;11.436;2023-01-27T00:39:41;96178.13;;;-1.70;100.00
13604;BME280;24578;48.264;11.436;2023-01-27T00:42:42;96181.69;;;-1.77;100.00
13604;BME280;24578;48.264;11.436;2023-01-27T00:45:45;96176.72;;;-1.80;100.00
13604;BME280;24578;48.264;11.436;2023-01-27T00:48:49;96175.97;;;-1.86;100.00
13604;BME280;24578;48.264;11.436;2023-01-27T00:51:51;96164.09;;;-1.85;100.00
13604;BME280;24578;48.264;11.436;2023-01-27T00:54:51;96184.41;;;-1.85;100.00
13604;BME280;24578;48.264;11.436;2023-01-27T00:57:52;96176.84;;;-1.87;100.00
13604;BME280;24578;48.264;11.436;2023-01-27T01:00:54;96176.22;;;-1.96;100.00
13604;BME280;24578;48.264;11.436;2023-01-27T01:03:55;96181.19;;;-1.92;100.00
13604;BME280;24578;48.264;11.436;2023-01-27T01:06:57;96181.00;;;-1.84;100.00
13604;BME280;24578;48.264;11.436;2023-01-27T01:09:58;96191.94;;;-1.80;100.00
13604;BME280;24578;48.264;11.436;2023-01-27T01:12:58;96188.53;;;-1.79;100.00
13604;BME280;24578;48.264;11.436;2023-01-27T01:16:07;96186.00;;;-1.81;100.00
13604;BME280;24578;48.264;11.436;2023-01-27T01:19:08;96213.00;;;-1.77;100.00
13604;BME280;24578;48.264;11.436;2023-01-27T01:22:09;96191.94;;;-1.80;100.00
13604;BME280;24578;48.264;11.436;2023-01-27T01:25:09;96202.97;;;-1.81;100.00
13604;BME280;24578;48.264;11.436;2023-01-27T01:28:10;96204.63;;;-1.80;100.00
13604;BME280;24578;48.264;11.436;2023-01-27T01:31:18;96208.84;;;-1.79;100.00
13604;BME280;24578;48.264;11.436;2023-01-27T01:34:19;96210.59;;;-1.83;100.00
13604;BME280;24578;48.264;11.436;2023-01-27T01:37:19;96202.34;;;-1.91;100.00
13604;BME280;24578;48.264;11.436;2023-01-27T01:40:20;96190.44;;;-1.89;100.00
13604;BME280;24578;48.264;11.436;2023-01-27T01:43:21;96192.81;;;-1.83;100.00
13604;BME280;24578;48.264;11.436;2023-01-27T01:46:22;96194.59;;;-1.87;100.00
13604;BME280;24578;48.264;11.436;2023-01-27T01:49:34;96181.88;;;-1.85;100.00
13604;BME280;24578;48.264;11.436;2023-01-27T01:52:36;96177.53;;;-1.80;100.00
13604;BME280;24578;48.264;11.436;2023-01-27T01:55:39;96174.06;;;-1.77;100.00
13604;BME280;24578;48.264;11.436;2023-01-27T01:58:42;96172.38;;;-1.77;100.00
13604;BME280;24578;48.264;11.436;2023-01-27T02:01:44;96181.59;;;-1.73;100.00
13604;BME280;24578;48.264;11.436;2023-01-27T02:08:37;96190.03;;;-1.72;100.00
13604;BME280;24578;48.264;11.436;2023-01-27T02:11:39;96198.50;;;-1.72;100.00
13604;BME280;24578;48.264;11.436;2023-01-27T02:14:40;96199.56;;;-1.80;100.00
13604;BME280;24578;48.264;11.436;2023-01-27T02:17:41;96177.66;;;-1.86;100.00
13604;BME280;24578;48.264;11.436;2023-01-27T02:24:02;96182.06;;;-1.93;100.00
13604;BME280;24578;48.264;11.436;2023-01-27T02:27:11;96190.53;;;-1.94;100.00
13604;BME280;24578;48.264;11.436;2023-01-27T02:30:13;96188.09;;;-1.99;100.00
13604;BME280;24578;48.264;11.436;2023-01-27T02:33:14;96189.81;;;-1.99;100.00
13604;BME280;24578;48.264;11.436;2023-01-27T02:36:16;96194.91;;;-1.99;100.00
13604;BME280;24578;48.264;11.436;2023-01-27T02:39:22;96184.81;;;-2.02;100.00
13604;BME280;24578;48.264;11.436;2023-01-27T02:42:24;96182.34;;;-2.05;100.00
13604;BME280;24578;48.264;11.436;2023-01-27T02:45:25;96180.56;;;-2.02;100.00
13604;BME280;24578;48.264;11.436;2023-01-27T02:48:26;96188.16;;;-2.02;100.00
13604;BME280;24578;48.264;11.436;2023-01-27T02:51:26;96173.91;;;-2.06;100.00
13604;BME280;24578;48.264;11.436;2023-01-27T02:54:29;96162.97;;;-2.09;100.00
13604;BME280;24578;48.264;11.436;2023-01-27T02:57:30;96175.59;;;-2.06;100.00
13604;BME280;24578;48.264;11.436;2023-01-27T03:00:30;96159.50;;;-2.05;100.00
13604;BME280;24578;48.264;11.436;2023-01-27T03:03:31;96178.94;;;-2.04;100.00
13604;BME280;24578;48.264;11.436;2023-01-27T03:06:31;96173.03;;;-2.05;100.00
13604;BME280;24578;48.264;11.436;2023-01-27T03:09:32;96165.53;;;-2.09;100.00
13604;BME280;24578;48.264;11.436;2023-01-27T03:12:32;96185.75;;;-2.06;100.00
13604;BME280;24578;48.264;11.436;2023-01-27T03:15:33;96177.28;;;-2.05;100.00
13604;BME280;24578;48.264;11.436;2023-01-27T03:18:53;96171.31;;;-2.04;100.00
13604;BME280;24578;48.264;11.436;2023-01-27T03:21:55;96169.72;;;-2.08;100.00
13604;BME280;24578;48.264;11.436;2023-01-27T03:24:56;96173.88;;;-2.04;100.00
13604;BME280;24578;48.264;11.436;2023-01-27T03:27:56;96170.50;;;-2.05;100.00
13604;BME280;24578;48.264;11.436;2023-01-27T03:31:09;96167.13;;;-2.05;100.00
13604;BME280;24578;48.264;11.436;2023-01-27T03:34:18;96156.09;;;-2.03;100.00
13604;BME280;24578;48.264;11.436;2023-01-27T03:37:19;96159.31;;;-1.96;100.00
13604;BME280;24578;48.264;11.436;2023-01-27T03:40:38;96159.50;;;-2.04;100.00
13604;BME280;24578;48.264;11.436;2023-01-27T03:43:57;96154.31;;;-1.99;100.00
13604;BME280;24578;48.264;11.436;2023-01-27T03:47:16;96161.16;;;-2.03;100.00
13604;BME280;24578;48.264;11.436;2023-01-27T03:50:17;96168.78;;;-2.04;100.00
13604;BME280;24578;48.264;11.436;2023-01-27T03:53:19;96156.09;;;-2.04;100.00
13604;BME280;24578;48.264;11.436;2023-01-27T03:56:20;96169.72;;;-2.08;100.00
13604;BME280;24578;48.264;11.436;2023-01-27T03:59:21;96162.81;;;-2.02;100.00
13604;BME280;24578;48.264;11.436;2023-01-27T04:02:22;96169.66;;;-2.04;100.00
13604;BME280;24578;48.264;11.436;2023-01-27T04:05:41;96171.38;;;-2.06;100.00
13604;BME280;24578;48.264;11.436;2023-01-27T04:09:01;96176.38;;;-2.03;100.00
13604;BME280;24578;48.264;11.436;2023-01-27T04:12:04;96167.09;;;-2.04;100.00
13604;BME280;24578;48.264;11.436;2023-01-27T04:15:05;96167.06;;;-2.02;100.00
13604;BME280;24578;48.264;11.436;2023-01-27T04:18:07;96173.75;;;-2.00;100.00
13604;BME280;24578;48.264;11.436;2023-01-27T04:21:07;96169.59;;;-2.02;100.00
13604;BME280;24578;48.264;11.436;2023-01-27T04:24:10;96167.00;;;-2.01;100.00
13604;BME280;24578;48.264;11.436;2023-01-27T04:27:21;96160.19;;;-1.99;100.00
13604;BME280;24578;48.264;11.436;2023-01-27T04:30:22;96162.75;;;-1.99;100.00
13604;BME280;24578;48.264;11.436;2023-01-27T04:33:23;96167.06;;;-2.02;100.00
13604;BME280;24578;48.264;11.436;2023-01-27T04:36:23;96159.44;;;-2.02;100.00
13604;BME280;24578;48.264;11.436;2023-01-27T04:39:25;96158.47;;;-1.96;100.00
13604;BME280;24578;48.264;11.436;2023-01-27T04:42:26;96167.94;;;-2.03;100.00
13604;BME280;24578;48.264;11.436;2023-01-27T04:45:26;96165.34;;;-2.02;100.00
13604;BME280;24578;48.264;11.436;2023-01-27T04:48:27;96168.00;;;-2.06;100.00
13604;BME280;24578;48.264;11.436;2023-01-27T04:51:28;96172.13;;;-2.02;100.00
13604;BME280;24578;48.264;11.436;2023-01-27T04:54:28;96163.75;;;-2.06;100.00
13604;BME280;24578;48.264;11.436;2023-01-27T04:57:29;96164.59;;;-2.05;100.00
13604;BME280;24578;48.264;11.436;2023-01-27T05:00:30;96162.03;;;-2.04;100.00
13604;BME280;24578;48.264;11.436;2023-01-27T05:03:31;96155.34;;;-2.08;100.00
13604;BME280;24578;48.264;11.436;2023-01-27T05:06:31;96155.31;;;-2.06;100.00
13604;BME280;24578;48.264;11.436;2023-01-27T05:09:33;96175.59;;;-2.06;100.00
13604;BME280;24578;48.264;11.436;2023-01-27T05:12:34;96172.94;;;-2.00;100.00
13604;BME280;24578;48.264;11.436;2023-01-27T05:15:34;96176.38;;;-2.03;100.00
13604;BME280;24578;48.264;11.436;2023-01-27T05:18:35;96178.06;;;-2.03;100.00
13604;BME280;24578;48.264;11.436;2023-01-27T05:21:36;96162.81;;;-2.02;100.00
13604;BME280;24578;48.264;11.436;2023-01-27T05:24:36;96175.47;;;-2.02;100.00
13604;BME280;24578;48.264;11.436;2023-01-27T05:27:40;96177.31;;;-2.07;100.00
13604;BME280;24578;48.264;11.436;2023-01-27T05:30:40;96186.53;;;-2.03;100.00
13604;BME280;24578;48.264;11.436;2023-01-27T05:33:41;96184.81;;;-2.02;100.00
13604;BME280;24578;48.264;11.436;2023-01-27T05:36:42;96186.53;;;-2.04;100.00
13604;BME280;24578;48.264;11.436;2023-01-27T05:39:42;96186.47;;;-2.01;100.00
13604;BME280;24578;48.264;11.436;2023-01-27T05:42:43;96191.50;;;-1.98;100.00
13604;BME280;24578;48.264;11.436;2023-01-27T05:45:43;96191.63;;;-2.04;100.00
13604;BME280;24578;48.264;11.436;2023-01-27T05:48:49;96200.09;;;-2.04;100.00
13604;BME280;24578;48.264;11.436;2023-01-27T05:51:50;96206.81;;;-2.03;100.00
13604;BME280;24578;48.264;11.436;2023-01-27T05:54:50;96200.03;;;-2.02;100.00
13604;BME280;24578;48.264;11.436;2023-01-27T05:57:51;96199.16;;;-2.01;100.00
13604;BME280;24578;48.264;11.436;2023-01-27T06:00:52;96211.00;;;-2.00;100.00
13604;BME280;24578;48.264;11.436;2023-01-27T06:03:53;96216.81;;;-1.96;100.00
13604;BME280;24578;48.264;11.436;2023-01-27T06:06:53;96216.81;;;-1.96;100.00
13604;BME280;24578;48.264;11.436;2023-01-27T06:09:54;96222.81;;;-2.01;100.00
13604;BME280;24578;48.264;11.436;2023-01-27T06:12:54;96233.78;;;-1.99;100.00
13604;BME280;24578;48.264;11.436;2023-01-27T06:15:55;96223.56;;;-1.95;100.00
13604;BME280;24578;48.264;11.436;2023-01-27T06:18:55;96228.75;;;-2.02;100.00
13604;BME280;24578;48.264;11.436;2023-01-27T06:21:58;96210.19;;;-2.02;100.00
13604;BME280;24578;48.264;11.436;2023-01-27T06:24:59;96232.09;;;-2.00;100.00
13604;BME280;24578;48.264;11.436;2023-01-27T06:27:59;96219.41;;;-2.00;100.00
13604;BME280;24578;48.264;11.436;2023-01-27T06:31:20;96222.81;;;-1.99;100.00
13604;BME280;24578;48.264;11.436;2023-01-27T06:34:21;96230.38;;;-1.97;100.00
13604;BME280;24578;48.264;11.436;2023-01-27T06:37:21;96235.44;;;-1.96;100.00
13604;BME280;24578;48.264;11.436;2023-01-27T06:40:22;96232.97;;;-2.01;100.00
13604;BME280;24578;48.264;11.436;2023-01-27T06:43:22;96240.50;;;-1.96;100.00
13604;BME280;24578;48.264;11.436;2023-01-27T06:46:23;96248.97;;;-1.97;100.00
13604;BME280;24578;48.264;11.436;2023-01-27T06:49:23;96257.47;;;-1.98;100.00
13604;BME280;24578;48.264;11.436;2023-01-27T06:52:24;96249.84;;;-1.98;100.00
13604;BME280;24578;48.264;11.436;2023-01-27T06:55:24;96263.41;;;-1.99;100.00
13604;BME280;24578;48.264;11.436;2023-01-27T06:58:26;96260.00;;;-1.98;100.00
13604;BME280;24578;48.264;11.436;2023-01-27T07:01:27;96261.56;;;-1.94;100.00
13604;BME280;24578;48.264;11.436;2023-01-27T07:04:27;96269.06;;;-1.88;100.00
13604;BME280;24578;48.264;11.436;2023-01-27T07:07:29;96256.25;;;-1.83;100.00
13604;BME280;24578;48.264;11.436;2023-01-27T07:10:29;96259.66;;;-1.82;100.00
13604;BME280;24578;48.264;11.436;2023-01-27T07:13:30;96264.66;;;-1.79;100.00
13604;BME280;24578;48.264;11.436;2023-01-27T07:16:30;96273.84;;;-1.75;100.00
13604;BME280;24578;48.264;11.436;2023-01-27T07:19:31;96270.50;;;-1.76;100.00
13604;BME280;24578;48.264;11.436;2023-01-27T07:22:32;96257.69;;;-1.71;100.00
13604;BME280;24578;48.264;11.436;2023-01-27T07:25:33;96260.97;;;-1.66;100.00
13604;BME280;24578;48.264;11.436;2023-01-27T07:28:34;96254.03;;;-1.59;100.00
13604;BME280;24578;48.264;11.436;2023-01-27T07:31:34;96255.66;;;-1.57;100.00
13604;BME280;24578;48.264;11.436;2023-01-27T07:34:35;96242.91;;;-1.54;100.00
13604;BME280;24578;48.264;11.436;2023-01-27T07:37:35;96263.09;;;-1.49;100.00
13604;BME280;24578;48.264;11.436;2023-01-27T07:40:36;96254.56;;;-1.46;100.00
13604;BME280;24578;48.264;11.436;2023-01-27T07:43:37;96261.25;;;-1.42;100.00
13604;BME280;24578;48.264;11.436;2023-01-27T07:46:37;96249.28;;;-1.37;100.00
13604;BME280;24578;48.264;11.436;2023-01-27T07:49:38;96251.56;;;-1.28;100.00
13604;BME280;24578;48.264;11.436;2023-01-27T07:52:38;96257.50;;;-1.27;100.00
13604;BME280;24578;48.264;11.436;2023-01-27T07:55:39;96263.19;;;-1.17;100.00
13604;BME280;24578;48.264;11.436;2023-01-27T07:58:40;96257.16;;;-1.13;100.00
13604;BME280;24578;48.264;11.436;2023-01-27T08:01:41;96251.94;;;-1.09;100.00
13604;BME280;24578;48.264;11.436;2023-01-27T08:04:42;96252.84;;;-1.11;100.00
13604;BME280;24578;48.264;11.436;2023-01-27T08:07:43;96252.66;;;-1.03;100.00
13604;BME280;24578;48.264;11.436;2023-01-27T08:10:44;96249.13;;;-0.98;100.00
13604;BME280;24578;48.264;11.436;2023-01-27T08:13:48;96246.59;;;-0.98;100.00
13604;BME280;24578;48.264;11.436;2023-01-27T08:16:48;96247.56;;;-1.02;100.00
13604;BME280;24578;48.264;11.436;2023-01-27T08:19:49;96258.59;;;-1.03;100.00
13604;BME280;24578;48.264;11.436;2023-01-27T08:22:51;96260.22;;;-1.00;100.00
13604;BME280;24578;48.264;11.436;2023-01-27T08:25:56;96260.97;;;-0.97;100.00
13604;BME280;24578;48.264;11.436;2023-01-27T08:28:58;96270.25;;;-0.96;100.00
13604;BME280;24578;48.264;11.436;2023-01-27T08:31:58;96286.22;;;-0.90;100.00
13604;BME280;24578;48.264;11.436;2023-01-27T08:34:59;96273.47;;;-0.89;100.00
13604;BME280;24578;48.264;11.436;2023-01-27T08:37:59;96273.41;;;-0.86;100.00
13604;BME280;24578;48.264;11.436;2023-01-27T08:41:07;96283.28;;;-0.75;100.00
13604;BME280;24578;48.264;11.436;2023-01-27T08:44:08;96285.78;;;-0.73;100.00
13604;BME280;24578;48.264;11.436;2023-01-27T08:47:08;96285.41;;;-0.59;100.00
13604;BME280;24578;48.264;11.436;2023-01-27T08:50:09;96287.69;;;-0.49;100.00
13604;BME280;24578;48.264;11.436;2023-01-27T08:53:10;96284.13;;;-0.43;100.00
13604;BME280;24578;48.264;11.436;2023-01-27T08:56:13;96283.13;;;-0.37;100.00
13604;BME280;24578;48.264;11.436;2023-01-27T08:59:14;96289.06;;;-0.38;100.00
13604;BME280;24578;48.264;11.436;2023-01-27T09:02:14;96298.47;;;-0.40;100.00
13604;BME280;24578;48.264;11.436;2023-01-27T09:05:16;96299.03;;;-0.31;100.00
13604;BME280;24578;48.264;11.436;2023-01-27T09:08:17;96302.25;;;-0.24;100.00
13604;BME280;24578;48.264;11.436;2023-01-27T09:11:17;96304.78;;;-0.24;100.00
13604;BME280;24578;48.264;11.436;2023-01-27T09:14:18;96305.75;;;-0.28;100.00
13604;BME280;24578;48.264;11.436;2023-01-27T09:17:20;96304.66;;;-0.19;100.00
13604;BME280;24578;48.264;11.436;2023-01-27T09:20:20;96304.03;;;-0.27;100.00
13604;BME280;24578;48.264;11.436;2023-01-27T09:23:21;96318.50;;;-0.29;100.00
13604;BME280;24578;48.264;11.436;2023-01-27T09:26:22;96319.34;;;-0.29;100.00
13604;BME280;24578;48.264;11.436;2023-01-27T09:29:24;96318.53;;;-0.31;100.00
13604;BME280;24578;48.264;11.436;2023-01-27T09:32:24;96312.72;;;-0.35;100.00
13604;BME280;24578;48.264;11.436;2023-01-27T09:35:29;96316.00;;;-0.31;100.00
13604;BME280;24578;48.264;11.436;2023-01-27T09:38:40;96313.34;;;-0.26;100.00
13604;BME280;24578;48.264;11.436;2023-01-27T10:11:27;96306.22;;;0.15;100.00
13604;BME280;24578;48.264;11.436;2023-01-27T10:18:16;96315.72;;;0.38;100.00
13604;BME280;24578;48.264;11.436;2023-01-27T10:21:44;96316.41;;;0.43;100.00
13604;BME280;24578;48.264;11.436;2023-01-27T10:25:30;96320.63;;;0.44;100.00
13604;BME280;24578;48.264;11.436;2023-01-27T10:28:30;96324.84;;;0.45;100.00
13604;BME280;24578;48.264;11.436;2023-01-27T10:31:36;96316.56;;;0.39;100.00
13604;BME280;24578;48.264;11.436;2023-01-27T10:34:49;96321.78;;;0.34;100.00
13604;BME280;24578;48.264;11.436;2023-01-27T10:51:25;96337.50;;;-0.10;100.00
13604;BME280;24578;48.264;11.436;2023-01-27T10:54:40;96324.41;;;-0.29;100.00
13604;BME280;24578;48.264;11.436;2023-01-27T10:58:09;96326.06;;;-0.26;100.00
13604;BME280;24578;48.264;11.436;2023-01-27T11:01:15;96327.59;;;-0.21;100.00
13604;BME280;24578;48.264;11.436;2023-01-27T11:04:33;96326.66;;;-0.17;100.00
13604;BME280;24578;48.264;11.436;2023-01-27T11:07:49;96329.09;;;-0.13;100.00
13604;BME280;24578;48.264;11.436;2023-01-27T11:11:00;96327.84;;;0.02;100.00
13604;BME280;24578;48.264;11.436;2023-01-27T11:17:46;96325.53;;;0.51;100.00
13604;BME280;24578;48.264;11.436;2023-01-27T11:21:09;96320.97;;;0.60;100.00
13604;BME280;24578;48.264;11.436;2023-01-27T11:24:20;96305.19;;;0.78;100.00
13604;BME280;24578;48.264;11.436;2023-01-27T11:31:04;96319.16;;;1.43;100.00
13604;BME280;24578;48.264;11.436;2023-01-27T11:34:46;96315.81;;;1.41;100.00
13604;BME280;24578;48.264;11.436;2023-01-27T11:37:50;96319.34;;;1.37;100.00
13604;BME280;24578;48.264;11.436;2023-01-27T11:40:52;96323.38;;;1.19;100.00
13604;BME280;24578;48.264;11.436;2023-01-27T11:43:53;96319.50;;;1.07;100.00
13604;BME280;24578;48.264;11.436;2023-01-27T11:46:55;96310.53;;;0.95;100.00
13604;BME280;24578;48.264;11.436;2023-01-27T11:49:56;96317.69;;;0.85;100.00
13604;BME280;24578;48.264;11.436;2023-01-27T11:53:20;96307.22;;;0.93;100.00
13604;BME280;24578;48.264;11.436;2023-01-27T11:56:23;96306.06;;;1.02;100.00
13604;BME280;24578;48.264;11.436;2023-01-27T11:59:33;96303.69;;;0.97;100.00
13604;BME280;24578;48.264;11.436;2023-01-27T12:02:43;96302.19;;;0.65;100.00
13604;BME280;24578;48.264;11.436;2023-01-27T12:05:53;96299.81;;;0.58;100.00
13604;BME280;24578;48.264;11.436;2023-01-27T12:08:54;96299.41;;;0.71;100.00
13604;BME280;24578;48.264;11.436;2023-01-27T12:15:16;96295.47;;;0.89;100.00
13604;BME280;24578;48.264;11.436;2023-01-27T12:18:17;96297.53;;;1.03;100.00
13604;BME280;24578;48.264;11.436;2023-01-27T12:21:18;96288.22;;;1.02;100.00
13604;BME280;24578;48.264;11.436;2023-01-27T12:24:35;96286.59;;;1.01;100.00
13604;BME280;24578;48.264;11.436;2023-01-27T12:27:45;96285.56;;;1.05;100.00
13604;BME280;24578;48.264;11.436;2023-01-27T12:30:47;96281.97;;;1.11;100.00
13604;BME280;24578;48.264;11.436;2023-01-27T12:34:01;96284.44;;;1.14;100.00
13604;BME280;24578;48.264;11.436;2023-01-27T12:37:06;96294.13;;;1.29;100.00
13604;BME280;24578;48.264;11.436;2023-01-27T12:40:18;96284.84;;;1.27;100.00
13604;BME280;24578;48.264;11.436;2023-01-27T12:43:19;96277.75;;;1.35;100.00
13604;BME280;24578;48.264;11.436;2023-01-27T12:46:23;96278.03;;;1.27;100.00
13604;BME280;24578;48.264;11.436;2023-01-27T12:49:32;96286.09;;;1.15;100.00
13604;BME280;24578;48.264;11.436;2023-01-27T12:52:32;96288.28;;;1.00;100.00
13604;BME280;24578;48.264;11.436;2023-01-27T12:55:46;96295.72;;;0.81;100.00
13604;BME280;24578;48.264;11.436;2023-01-27T12:58:59;96283.72;;;0.58;100.00
13604;BME280;24578;48.264;11.436;2023-01-27T13:05:19;96277.38;;;0.43;100.00
13604;BME280;24578;48.264;11.436;2023-01-27T13:08:23;96283.53;;;0.36;100.00
13604;BME280;24578;48.264;11.436;2023-01-27T13:11:32;96279.50;;;0.28;100.00
13604;BME280;24578;48.264;11.436;2023-01-27T13:14:40;96277.75;;;0.30;100.00
13604;BME280;24578;48.264;11.436;2023-01-27T13:17:51;96272.66;;;0.30;100.00
13604;BME280;24578;48.264;11.436;2023-01-27T13:21:06;96284.03;;;0.47;100.00
13604;BME280;24578;48.264;11.436;2023-01-27T13:24:30;96281.88;;;0.62;100.00
13604;BME280;24578;48.264;11.436;2023-01-27T13:27:38;96272.25;;;0.71;100.00
13604;BME280;24578;48.264;11.436;2023-01-27T13:30:45;96275.47;;;0.77;100.00
13604;BME280;24578;48.264;11.436;2023-01-27T13:33:50;96272.63;;;0.86;100.00
13604;BME280;24578;48.264;11.436;2023-01-27T13:37:05;96275.69;;;0.96;100.00
13604;BME280;24578;48.264;11.436;2023-01-27T13:40:22;96268.50;;;1.07;100.00
13604;BME280;24578;48.264;11.436;2023-01-27T13:43:31;96275.19;;;1.11;100.00
13604;BME280;24578;48.264;11.436;2023-01-27T13:46:37;96281.94;;;1.12;100.00
13604;BME280;24578;48.264;11.436;2023-01-27T13:50:48;96270.59;;;0.96;100.00
13604;BME280;24578;48.264;11.436;2023-01-27T13:53:29;96276.41;;;0.99;100.00
13604;BME280;24578;48.264;11.436;2023-01-27T13:57:12;96278.53;;;1.13;100.00
13604;BME280;24578;48.264;11.436;2023-01-27T14:00:23;96284.19;;;1.21;100.00
13604;BME280;24578;48.264;11.436;2023-01-27T14:10:54;96285.28;;;1.14;100.00
13604;BME280;24578;48.264;11.436;2023-01-27T14:17:32;96294.50;;;0.93;100.00
13604;BME280;24578;48.264;11.436;2023-01-27T14:24:13;96301.09;;;0.72;100.00
13604;BME280;24578;48.264;11.436;2023-01-27T14:31:16;96293.09;;;0.56;100.00
13604;BME280;24578;48.264;11.436;2023-01-27T14:34:25;96290.16;;;0.41;100.00
13604;BME280;24578;48.264;11.436;2023-01-27T14:37:49;96295.25;;;0.41;100.00
13604;BME280;24578;48.264;11.436;2023-01-27T14:41:12;96288.59;;;0.37;100.00
13604;BME280;24578;48.264;11.436;2023-01-27T14:44:28;96298.81;;;0.36;100.00
13604;BME280;24578;48.264;11.436;2023-01-27T14:47:39;96300.28;;;0.43;100.00
13604;BME280;24578;48.264;11.436;2023-01-27T14:57:20;96306.72;;;0.26;100.00
13604;BME280;24578;48.264;11.436;2023-01-27T15:03:39;96322.50;;;0.09;100.00
13604;BME280;24578;48.264;11.436;2023-01-27T15:07:09;96325.28;;;0.02;100.00
13604;BME280;24578;48.264;11.436;2023-01-27T15:10:22;96323.69;;;-0.03;100.00
13604;BME280;24578;48.264;11.436;2023-01-27T15:13:33;96326.22;;;-0.01;100.00
13604;BME280;24578;48.264;11.436;2023-01-27T15:17:23;96329.63;;;-0.02;100.00
13604;BME280;24578;48.264;11.436;2023-01-27T15:26:27;96334.38;;;-0.21;100.00
13604;BME280;24578;48.264;11.436;2023-01-27T15:29:30;96338.59;;;-0.20;100.00
13604;BME280;24578;48.264;11.436;2023-01-27T15:32:35;96346.22;;;-0.20;100.00
13604;BME280;24578;48.264;11.436;2023-01-27T15:35:37;96340.34;;;-0.22;100.00
13604;BME280;24578;48.264;11.436;2023-01-27T15:38:38;96341.34;;;-0.26;100.00
13604;BME280;24578;48.264;11.436;2023-01-27T15:45:02;96350.88;;;-0.35;100.00
13604;BME280;24578;48.264;11.436;2023-01-27T15:48:13;96360.56;;;-0.48;100.00
13604;BME280;24578;48.264;11.436;2023-01-27T15:51:17;96357.09;;;-0.47;100.00
13604;BME280;24578;48.264;11.436;2023-01-27T15:54:31;96349.59;;;-0.51;100.00
13604;BME280;24578;48.264;11.436;2023-01-27T15:57:37;96348.03;;;-0.55;100.00
13604;BME280;24578;48.264;11.436;2023-01-27T16:00:41;96349.91;;;-0.31;100.00
13604;BME280;24578;48.264;11.436;2023-01-27T16:03:49;96340.34;;;-0.22;100.00
13604;BME280;24578;48.264;11.436;2023-01-27T16:06:55;96347.09;;;-0.20;100.00
13604;BME280;24578;48.264;11.436;2023-01-27T16:10:07;96347.28;;;-0.27;100.00
13604;BME280;24578;48.264;11.436;2023-01-27T16:13:28;96352.53;;;-0.34;100.00
13604;BME280;24578;48.264;11.436;2023-01-27T16:16:30;96358.50;;;-0.35;100.00
13604;BME280;24578;48.264;11.436;2023-01-27T16:19:39;96359.44;;;-0.39;100.00
13604;BME280;24578;48.264;11.436;2023-01-27T16:22:49;96357.88;;;-0.43;100.00
13604;BME280;24578;48.264;11.436;2023-01-27T16:32:20;96363.72;;;-0.39;100.00
13604;BME280;24578;48.264;11.436;2023-01-27T16:35:21;96366.47;;;-0.47;100.00
13604;BME280;24578;48.264;11.436;2023-01-27T16:38:28;96366.59;;;-0.52;100.00
13604;BME280;24578;48.264;11.436;2023-01-27T16:41:34;96374.16;;;-0.49;100.00
13604;BME280;24578;48.264;11.436;2023-01-27T16:44:47;96371.75;;;-0.55;100.00
13604;BME280;24578;48.264;11.436;2023-01-27T16:48:05;96372.75;;;-0.60;100.00
13604;BME280;24578;48.264;11.436;2023-01-27T16:51:17;96372.69;;;-0.57;100.00
13604;BME280;24578;48.264;11.436;2023-01-27T16:54:31;96376.22;;;-0.63;100.00
13604;BME280;24578;48.264;11.436;2023-01-27T16:57:42;96367.72;;;-0.64;100.00
13604;BME280;24578;48.264;11.436;2023-01-27T17:00:45;96366.84;;;-0.63;100.00
13604;BME280;24578;48.264;11.436;2023-01-27T17:03:54;96366.00;;;-0.62;100.00
13604;BME280;24578;48.264;11.436;2023-01-27T17:07:02;96365.13;;;-0.60;100.00
13604;BME280;24578;48.264;11.436;2023-01-27T17:10:13;96371.06;;;-0.62;100.00
13604;BME280;24578;48.264;11.436;2023-01-27T17:13:29;96378.69;;;-0.62;100.00
13604;BME280;24578;48.264;11.436;2023-01-27T17:16:40;96372.63;;;-0.56;100.00
13604;BME280;24578;48.264;11.436;2023-01-27T17:19:51;96382.16;;;-0.64;100.00
13604;BME280;24578;48.264;11.436;2023-01-27T17:22:53;96377.84;;;-0.62;100.00
13604;BME280;24578;48.264;11.436;2023-01-27T17:25:55;96384.59;;;-0.61;100.00
13604;BME280;24578;48.264;11.436;2023-01-27T17:28:57;96395.63;;;-0.60;100.00
13604;BME280;24578;48.264;11.436;2023-01-27T17:31:57;96392.16;;;-0.58;100.00
13604;BME280;24578;48.264;11.436;2023-01-27T17:35:03;96393.81;;;-0.55;100.00
13604;BME280;24578;48.264;11.436;2023-01-27T17:38:19;96392.03;;;-0.53;100.00
13604;BME280;24578;48.264;11.436;2023-01-27T17:41:26;96406.53;;;-0.55;100.00
13604;BME280;24578;48.264;11.436;2023-01-27T17:44:27;96400.59;;;-0.56;100.00
13604;BME280;24578;48.264;11.436;2023-01-27T17:47:28;96396.34;;;-0.55;100.00
13604;BME280;24578;48.264;11.436;2023-01-27T17:50:36;96411.81;;;-0.65;100.00
13604;BME280;24578;48.264;11.436;2023-01-27T17:53:40;96406.91;;;-0.71;100.00